Time;durP1;ratioP1;P1;durP2;ratioP2;P2;SDS_P1;SDS_P2;PMS_P1;PMS_P2;Temp;Humidity;BMP_temperature;BMP_pressure;BME280_temperature;BME280_humidity;BME280_pressure;Samples;Min_cycle;Max_cycle;Signal;HPM_P1;HPM_P2
2021/11/20 00:00:07;;;;;;;2.08;1.08;;;19.90;56.30;;;;;;4772807;30;20212;-77
2021/11/20 00:02:33;;;;;;;1.70;1.08;;;19.80;56.20;;;;;;4773141;30;20225;-77
2021/11/20 00:05:00;;;;;;;3.60;0.90;;;19.90;56.30;;;;;;4772274;30;20231;-77
2021/11/20 00:07:29;;;;;;;1.65;1.10;;;19.90;56.50;;;;;;4787887;30;20171;-77
2021/11/20 00:09:57;;;;;;;2.67;1.10;;;19.80;56.40;;;;;;4787576;30;20182;-78
2021/11/20 00:12:30;;;;;;;4.03;1.00;;;19.80;56.30;;;;;;4773707;30;20534;-77
2021/11/20 00:14:56;;;;;;;2.88;1.13;;;19.90;56.30;;;;;;4787653;30;20604;-77
2021/11/20 00:17:24;;;;;;;1.73;0.90;;;19.80;56.20;;;;;;4772528;30;20203;-78
2021/11/20 00:19:49;;;;;;;1.83;1.00;;;19.80;56.10;;;;;;4772479;30;20160;-77
2021/11/20 00:22:20;;;;;;;2.28;1.23;;;19.80;56.00;;;;;;4772677;30;20174;-77
2021/11/20 00:24:50;;;;;;;3.10;1.40;;;19.80;56.00;;;;;;4773112;30;20212;-78
2021/11/20 00:27:21;;;;;;;1.38;0.95;;;19.80;55.90;;;;;;4787257;30;20175;-78
2021/11/20 00:32:27;;;;;;;2.65;1.05;;;19.80;56.10;;;;;;4775143;30;20190;-78
2021/11/20 00:34:58;;;;;;;1.48;1.35;;;19.70;55.90;;;;;;4772440;30;20232;-77
2021/11/20 00:37:27;;;;;;;2.30;1.10;;;19.90;56.10;;;;;;4757799;30;20212;-78
2021/11/20 00:39:53;;;;;;;1.42;0.88;;;19.90;56.00;;;;;;4786639;30;20172;-78
2021/11/20 00:42:19;;;;;;;1.05;0.90;;;19.80;56.00;;;;;;4771948;30;20167;-77
2021/11/20 00:44:46;;;;;;;2.50;1.20;;;19.80;56.60;;;;;;4772324;30;20184;-78
2021/11/20 00:47:13;;;;;;;4.95;1.35;;;19.80;55.80;;;;;;4772254;30;20170;-77
2021/11/20 00:49:41;;;;;;;3.60;1.10;;;19.80;55.80;;;;;;4772774;30;20167;-77
2021/11/20 00:52:08;;;;;;;1.90;1.00;;;19.80;55.80;;;;;;4772083;30;20186;-78
2021/11/20 00:54:34;;;;;;;1.27;0.98;;;19.80;55.80;;;;;;4787135;30;20258;-78
2021/11/20 00:57:00;;;;;;;1.58;1.05;;;19.80;55.70;;;;;;4772127;30;20203;-78
2021/11/20 00:59:26;;;;;;;1.48;1.10;;;19.80;55.70;;;;;;4786800;30;20163;-78
2021/11/20 01:01:55;;;;;;;3.28;1.20;;;19.80;55.70;;;;;;4771714;30;20171;-77
2021/11/20 01:04:22;;;;;;;2.72;1.15;;;19.80;55.80;;;;;;4771590;30;20187;-77
2021/11/20 01:06:49;;;;;;;2.33;1.15;;;19.80;55.80;;;;;;4772342;30;20184;-77
2021/11/20 01:09:18;;;;;;;2.33;0.90;;;19.80;55.70;;;;;;4772167;30;20168;-77
2021/11/20 01:11:49;;;;;;;1.20;1.00;;;19.80;55.70;;;;;;4757857;30;20179;-77
2021/11/20 01:14:15;;;;;;;3.53;0.90;;;19.80;55.90;;;;;;4772243;30;20159;-77
2021/11/20 01:16:42;;;;;;;0.95;0.80;;;19.80;55.90;;;;;;4771595;30;20253;-77
2021/11/20 01:19:14;;;;;;;3.05;1.17;;;19.70;55.80;;;;;;4786624;30;20237;-77
2021/11/20 01:21:41;;;;;;;1.40;0.90;;;19.80;55.80;;;;;;4786137;30;20164;-77
2021/11/20 01:24:08;;;;;;;1.27;0.85;;;19.80;55.80;;;;;;4771246;30;20186;-77
2021/11/20 01:26:36;;;;;;;3.22;1.10;;;19.70;55.70;;;;;;4771440;30;20167;-77
2021/11/20 01:29:05;;;;;;;1.75;0.93;;;19.80;55.80;;;;;;4787488;30;20270;-77
2021/11/20 01:31:36;;;;;;;1.58;1.10;;;19.80;55.80;;;;;;4787281;30;20175;-78
2021/11/20 01:34:03;;;;;;;1.98;1.02;;;19.80;55.80;;;;;;4786835;30;20156;-77
2021/11/20 01:36:30;;;;;;;3.08;1.30;;;19.70;55.50;;;;;;4771465;30;20168;-77
2021/11/20 01:38:59;;;;;;;2.45;0.93;;;19.70;55.80;;;;;;4786403;30;20229;-78
2021/11/20 01:41:26;;;;;;;2.17;1.00;;;19.80;55.80;;;;;;4771329;30;20195;-78
2021/11/20 01:43:55;;;;;;;5.38;1.35;;;19.80;55.70;;;;;;4771469;30;20175;-77
2021/11/20 01:46:29;;;;;;;2.92;1.10;;;19.80;55.50;;;;;;4771211;30;20167;-77
2021/11/20 01:49:04;;;;;;;3.83;1.08;;;19.70;55.60;;;;;;4770757;30;20567;-78
2021/11/20 01:51:37;;;;;;;3.65;1.10;;;19.80;55.80;;;;;;4771545;30;20274;-77
2021/11/20 01:54:14;;;;;;;1.85;1.08;;;19.70;55.70;;;;;;4786556;30;20167;-78
2021/11/20 01:57:04;;;;;;;1.50;1.00;;;19.70;56.20;;;;;;4801962;30;20234;-78
2021/11/20 01:59:46;;;;;;;2.30;1.20;;;19.70;55.60;;;;;;4787517;30;20297;-78
2021/11/20 02:02:35;;;;;;;1.42;1.00;;;19.70;55.50;;;;;;4786839;30;20164;-78
2021/11/20 02:05:08;;;;;;;0.80;0.73;;;19.70;55.60;;;;;;4787192;30;20242;-78
2021/11/20 02:07:55;;;;;;;1.80;0.93;;;19.80;55.80;;;;;;4786040;30;20262;-78
2021/11/20 02:10:26;;;;;;;2.85;1.00;;;19.70;55.60;;;;;;4773309;30;20186;-78
2021/11/20 02:12:55;;;;;;;1.70;1.02;;;19.80;55.50;;;;;;4770921;30;20171;-78
2021/11/20 02:15:28;;;;;;;2.30;1.05;;;19.80;55.50;;;;;;4771468;30;20184;-79
2021/11/20 02:17:56;;;;;;;1.88;0.90;;;19.70;55.50;;;;;;4770289;30;20202;-78
2021/11/20 02:20:28;;;;;;;1.80;1.10;;;19.70;55.60;;;;;;4770984;30;20172;-78
2021/11/20 02:22:53;;;;;;;2.17;0.95;;;19.70;55.50;;;;;;4771077;30;20160;-78
2021/11/20 02:25:21;;;;;;;2.53;0.90;;;19.60;55.50;;;;;;4784583;30;20220;-78
2021/11/20 02:27:50;;;;;;;1.80;0.82;;;19.60;55.30;;;;;;4785228;30;20175;-78
2021/11/20 02:30:37;;;;;;;1.60;1.05;;;19.60;55.50;;;;;;4770565;30;20249;-78
2021/11/20 02:33:24;;;;;;;0.93;0.80;;;19.80;55.50;;;;;;4773028;30;20171;-78
2021/11/20 02:35:53;;;;;;;2.70;0.88;;;19.70;55.40;;;;;;4772537;30;20160;-78
2021/11/20 02:38:26;;;;;;;1.42;0.90;;;19.70;55.30;;;;;;4801115;30;20195;-78
2021/11/20 02:40:54;;;;;;;1.98;1.15;;;19.70;55.50;;;;;;4771040;30;20171;-78
2021/11/20 02:43:21;;;;;;;1.77;1.20;;;19.70;55.50;;;;;;4785170;30;20164;-78
2021/11/20 02:45:51;;;;;;;1.23;1.00;;;19.60;55.30;;;;;;4784927;30;20175;-78
2021/11/20 02:48:17;;;;;;;2.33;1.13;;;19.70;55.40;;;;;;4770313;30;20168;-78
2021/11/20 02:50:49;;;;;;;2.17;1.13;;;19.70;55.40;;;;;;4755059;30;20167;-78
2021/11/20 02:53:21;;;;;;;1.15;1.00;;;19.70;55.40;;;;;;4786076;30;20160;-78
2021/11/20 02:55:49;;;;;;;3.50;1.08;;;19.70;55.50;;;;;;4770311;30;20242;-78
2021/11/20 02:58:15;;;;;;;1.20;0.80;;;19.70;55.30;;;;;;4755411;30;20203;-78
2021/11/20 03:00:41;;;;;;;2.40;1.30;;;19.70;55.40;;;;;;4784881;30;20232;-78
2021/11/20 03:03:32;;;;;;;1.58;1.10;;;19.60;55.20;;;;;;4755147;30;20160;-77
2021/11/20 03:05:58;;;;;;;2.35;1.05;;;19.70;56.00;;;;;;4784406;30;20235;-78
2021/11/20 03:08:27;;;;;;;1.50;0.98;;;19.70;55.30;;;;;;4770132;30;20178;-79
2021/11/20 03:10:53;;;;;;;2.05;1.10;;;19.70;55.30;;;;;;4770094;30;20195;-78
2021/11/20 03:13:18;;;;;;;2.47;1.10;;;19.70;55.30;;;;;;4769310;30;20171;-78
2021/11/20 03:15:46;;;;;;;1.50;0.90;;;19.70;55.30;;;;;;4769524;30;20168;-78
2021/11/20 03:18:14;;;;;;;1.25;1.02;;;19.60;55.30;;;;;;4769922;30;20237;-78
2021/11/20 03:20:40;;;;;;;2.10;1.05;;;19.70;55.40;;;;;;4769767;30;20190;-78
2021/11/20 03:23:12;;;;;;;1.48;0.90;;;19.60;55.30;;;;;;4784489;30;20171;-78
2021/11/20 03:25:40;;;;;;;1.50;0.80;;;19.60;55.30;;;;;;4770197;30;20170;-78
2021/11/20 03:28:07;;;;;;;1.75;1.10;;;19.60;55.30;;;;;;4784735;30;20199;-78
2021/11/20 03:30:35;;;;;;;2.03;1.20;;;19.70;55.30;;;;;;4769525;30;20204;-78
2021/11/20 03:33:01;;;;;;;2.70;1.02;;;19.70;55.30;;;;;;4784711;30;20164;-78
2021/11/20 03:35:28;;;;;;;2.28;1.02;;;19.70;55.20;;;;;;4784389;30;20186;-78
2021/11/20 03:37:55;;;;;;;1.70;0.90;;;19.70;55.20;;;;;;4784264;30;20223;-78
2021/11/20 03:40:21;;;;;;;1.35;0.77;;;19.70;55.20;;;;;;4769996;30;20164;-78
2021/11/20 03:42:48;;;;;;;1.88;0.82;;;19.70;55.30;;;;;;4784721;30;20605;-78
2021/11/20 03:45:14;;;;;;;2.33;0.80;;;19.70;55.30;;;;;;4784803;30;20179;-78
2021/11/20 03:47:40;;;;;;;1.17;1.00;;;19.70;55.30;;;;;;4784123;30;20533;-78
2021/11/20 03:50:09;;;;;;;3.03;1.00;;;19.60;55.20;;;;;;4784648;30;20175;-78
2021/11/20 03:52:38;;;;;;;1.95;0.90;;;19.70;55.40;;;;;;4769786;30;20633;-78
2021/11/20 03:55:08;;;;;;;3.30;1.20;;;19.70;55.40;;;;;;4769517;30;20215;-78
2021/11/20 03:57:34;;;;;;;1.25;0.88;;;19.70;56.10;;;;;;4783696;30;20203;-78
2021/11/20 04:00:03;;;;;;;1.45;1.20;;;19.70;55.40;;;;;;4769411;30;20619;-78
2021/11/20 04:02:29;;;;;;;3.15;1.30;;;19.70;55.30;;;;;;4769707;30;20198;-77
2021/11/20 04:04:54;;;;;;;1.80;1.05;;;19.60;55.30;;;;;;4785118;30;20234;-78
2021/11/20 04:07:20;;;;;;;2.25;1.02;;;19.70;55.30;;;;;;4783887;30;20180;-78
2021/11/20 04:09:48;;;;;;;1.15;0.90;;;19.70;55.30;;;;;;4770051;30;20215;-78
2021/11/20 04:12:13;;;;;;;1.98;1.10;;;19.60;55.20;;;;;;4769328;30;20186;-78
2021/11/20 04:14:40;;;;;;;2.55;0.85;;;19.70;55.50;;;;;;4769235;30;20164;-78
2021/11/20 04:17:06;;;;;;;1.48;0.90;;;19.70;55.40;;;;;;4769108;30;20275;-78
2021/11/20 04:19:32;;;;;;;1.58;1.00;;;19.70;55.50;;;;;;4784300;30;20217;-78
2021/11/20 04:21:57;;;;;;;2.20;1.00;;;19.70;55.50;;;;;;4784981;30;20179;-78
2021/11/20 04:24:25;;;;;;;1.35;0.88;;;19.60;55.50;;;;;;4799905;30;20183;-78
2021/11/20 04:26:51;;;;;;;4.10;1.13;;;19.70;55.50;;;;;;4800518;29;20167;-78
2021/11/20 04:29:18;;;;;;;1.42;1.10;;;19.60;55.40;;;;;;4787501;30;20183;-78
2021/11/20 04:31:46;;;;;;;1.80;0.90;;;19.60;55.40;;;;;;4787042;30;20162;-77
2021/11/20 04:34:12;;;;;;;1.00;0.90;;;19.70;55.50;;;;;;4787100;30;20175;-77
2021/11/20 04:36:40;;;;;;;1.95;0.93;;;19.70;55.40;;;;;;4772396;30;20293;-77
2021/11/20 04:39:05;;;;;;;1.88;1.00;;;19.70;55.50;;;;;;4802155;30;20168;-77
2021/11/20 04:41:31;;;;;;;2.17;0.98;;;19.70;55.50;;;;;;4802916;30;20164;-77
2021/11/20 04:43:57;;;;;;;2.55;1.10;;;19.60;55.40;;;;;;4772597;30;20252;-77
2021/11/20 04:46:23;;;;;;;2.38;1.25;;;19.60;55.30;;;;;;4772160;30;20199;-77
2021/11/20 04:48:49;;;;;;;1.65;1.08;;;19.70;55.50;;;;;;4786921;30;20172;-78
2021/11/20 04:51:15;;;;;;;1.63;0.90;;;19.70;55.50;;;;;;4772392;30;20172;-78
2021/11/20 04:53:42;;;;;;;2.28;0.90;;;19.70;55.30;;;;;;4772248;30;20178;-77
2021/11/20 04:56:08;;;;;;;1.05;0.90;;;19.60;55.30;;;;;;4786739;30;20163;-77
2021/11/20 04:58:36;;;;;;;1.27;0.90;;;19.60;55.30;;;;;;4786966;30;20226;-77
2021/11/20 05:01:02;;;;;;;1.27;0.80;;;19.70;55.40;;;;;;4772049;30;20179;-77
2021/11/20 05:03:29;;;;;;;2.70;1.00;;;19.60;55.40;;;;;;4771537;30;20167;-77
2021/11/20 05:05:55;;;;;;;3.03;0.90;;;19.70;55.30;;;;;;4786084;30;20226;-77
2021/11/20 05:08:22;;;;;;;1.02;0.77;;;19.70;55.30;;;;;;4772089;30;20159;-77
2021/11/20 05:10:55;;;;;;;1.17;0.93;;;19.60;55.30;;;;;;4787049;30;20259;-77
2021/11/20 05:13:24;;;;;;;1.00;0.90;;;19.60;55.20;;;;;;4802713;30;20179;-77
2021/11/20 05:15:51;;;;;;;2.35;1.00;;;19.60;55.30;;;;;;4771344;30;20214;-78
2021/11/20 05:18:17;;;;;;;1.92;0.98;;;19.60;55.40;;;;;;4802587;30;20198;-78
2021/11/20 05:20:44;;;;;;;1.30;0.95;;;19.60;55.40;;;;;;4771110;30;20582;-78
2021/11/20 05:23:11;;;;;;;1.55;1.00;;;19.60;55.30;;;;;;4786076;30;20212;-78
2021/11/20 05:25:38;;;;;;;0.85;0.80;;;19.60;55.30;;;;;;4802235;30;20163;-78
2021/11/20 05:28:04;;;;;;;1.13;0.88;;;19.60;55.50;;;;;;4786158;30;20186;-78
2021/11/20 05:30:35;;;;;;;0.90;0.80;;;19.60;55.40;;;;;;4771834;30;20534;-78
2021/11/20 05:33:07;;;;;;;1.60;0.82;;;19.60;55.50;;;;;;4786324;30;20243;-78
2021/11/20 05:35:33;;;;;;;1.00;0.88;;;19.60;55.40;;;;;;4786441;30;20699;-78
2021/11/20 05:38:00;;;;;;;1.85;1.10;;;19.60;55.30;;;;;;4771347;30;20227;-78
2021/11/20 05:40:27;;;;;;;1.23;0.95;;;19.60;55.50;;;;;;4771582;30;20249;-78
2021/11/20 05:42:55;;;;;;;1.98;0.90;;;19.60;55.50;;;;;;4771563;30;20168;-78
2021/11/20 05:45:23;;;;;;;1.92;0.90;;;19.60;55.40;;;;;;4771716;30;20178;-78
2021/11/20 05:47:49;;;;;;;1.38;0.88;;;19.60;55.50;;;;;;4771573;30;20164;-78
2021/11/20 05:50:19;;;;;;;1.90;0.90;;;19.60;55.50;;;;;;4770980;30;20202;-78
2021/11/20 05:52:49;;;;;;;1.38;1.20;;;19.60;55.60;;;;;;4772140;30;20179;-78
2021/11/20 05:55:17;;;;;;;0.88;0.88;;;19.60;55.40;;;;;;4771451;30;20203;-78
2021/11/20 05:57:42;;;;;;;1.38;1.02;;;19.60;55.50;;;;;;4770833;30;20199;-78
2021/11/20 06:00:12;;;;;;;1.50;1.00;;;19.60;55.50;;;;;;4785648;30;20178;-78
2021/11/20 06:02:39;;;;;;;1.40;0.90;;;19.50;55.70;;;;;;4771404;30;20179;-78
2021/11/20 06:05:05;;;;;;;2.83;1.00;;;19.60;55.70;;;;;;4785032;30;20235;-78
2021/11/20 06:07:30;;;;;;;0.80;0.80;;;19.60;55.50;;;;;;4785613;30;20176;-78
2021/11/20 06:09:57;;;;;;;1.88;0.80;;;19.50;55.60;;;;;;4770872;30;20175;-78
2021/11/20 06:12:25;;;;;;;1.10;1.00;;;19.60;55.50;;;;;;4771316;30;20182;-78
2021/11/20 06:14:52;;;;;;;1.15;1.00;;;19.50;55.70;;;;;;4801160;29;20163;-78
2021/11/20 06:17:19;;;;;;;1.50;1.05;;;19.60;55.80;;;;;;4785376;30;20203;-78
2021/11/20 06:19:44;;;;;;;1.23;0.93;;;19.50;55.60;;;;;;4785564;30;20171;-79
2021/11/20 06:22:11;;;;;;;2.03;1.00;;;19.60;55.60;;;;;;4785271;30;20620;-79
2021/11/20 06:24:42;;;;;;;2.42;1.00;;;19.60;55.70;;;;;;4785239;30;20185;-78
2021/11/20 06:27:08;;;;;;;1.77;1.10;;;19.60;55.60;;;;;;4799886;30;20282;-78
2021/11/20 06:29:34;;;;;;;1.75;0.90;;;19.60;55.50;;;;;;4784358;30;20168;-79
2021/11/20 06:32:00;;;;;;;2.30;0.95;;;19.50;55.50;;;;;;4768088;30;20185;-81
2021/11/20 06:34:26;;;;;;;1.95;1.00;;;19.50;55.50;;;;;;4762378;30;20179;-80
2021/11/20 06:36:51;;;;;;;1.42;0.70;;;19.50;55.60;;;;;;4798452;30;20206;-79
2021/11/20 06:39:18;;;;;;;1.35;0.90;;;19.60;55.60;;;;;;4784662;30;20167;-79
2021/11/20 06:41:44;;;;;;;1.40;0.90;;;19.50;55.70;;;;;;4799696;30;20168;-78
2021/11/20 06:44:10;;;;;;;1.40;0.95;;;19.50;55.60;;;;;;4784957;30;20182;-78
2021/11/20 06:46:36;;;;;;;0.77;0.70;;;19.60;55.60;;;;;;4784696;30;20171;-79
2021/11/20 06:49:03;;;;;;;1.98;1.15;;;19.50;55.60;;;;;;4799575;29;20160;-79
2021/11/20 06:51:28;;;;;;;2.05;0.98;;;19.50;55.60;;;;;;4784040;30;20179;-80
2021/11/20 06:53:54;;;;;;;1.35;0.90;;;19.50;55.50;;;;;;4784491;30;20332;-79
2021/11/20 06:56:27;;;;;;;1.88;1.02;;;19.50;55.50;;;;;;4800688;30;20160;-79
2021/11/20 06:59:08;;;;;;;2.67;0.90;;;19.60;55.40;;;;;;4785383;30;20252;-79
2021/11/20 07:01:35;;;;;;;0.85;0.77;;;19.50;55.20;;;;;;4787063;30;20183;-79
2021/11/20 07:04:04;;;;;;;1.25;0.77;;;19.50;55.10;;;;;;4797511;30;20163;-80
2021/11/20 07:06:33;;;;;;;1.85;1.00;;;19.50;55.20;;;;;;4779666;30;20232;-80
2021/11/20 07:08:59;;;;;;;3.35;1.00;;;19.50;55.40;;;;;;4779038;30;20228;-81
2021/11/20 07:11:25;;;;;;;1.65;1.00;;;19.50;55.30;;;;;;4776583;30;20201;-82
2021/11/20 07:13:51;;;;;;;1.08;0.80;;;19.50;54.70;;;;;;4789581;30;20188;-83
2021/11/20 07:16:18;;;;;;;0.80;0.80;;;19.50;54.30;;;;;;4783943;30;20183;-83
2021/11/20 07:18:43;;;;;;;2.28;1.00;;;19.50;54.20;;;;;;4775939;30;20225;-83
2021/11/20 07:21:10;;;;;;;1.88;1.00;;;19.50;54.10;;;;;;4769998;30;20176;-86
2021/11/20 07:23:43;;;;;;;0.93;0.60;;;19.60;54.10;;;;;;4755861;30;20191;-86
2021/11/20 07:26:09;;;;;;;2.33;1.00;;;19.50;54.50;;;;;;4757554;30;20180;-85
2021/11/20 07:28:35;;;;;;;0.70;0.60;;;19.50;54.80;;;;;;4769658;30;20184;-86
2021/11/20 07:31:04;;;;;;;0.93;0.70;;;19.50;54.70;;;;;;4756381;30;20180;-85
2021/11/20 07:33:33;;;;;;;0.93;0.70;;;19.60;54.10;;;;;;4758689;30;20172;-83
2021/11/20 07:36:00;;;;;;;1.45;0.90;;;19.60;54.50;;;;;;4772154;30;20271;-85
2021/11/20 07:38:30;;;;;;;1.38;0.75;;;19.60;54.50;;;;;;4771031;30;20192;-83
2021/11/20 07:40:55;;;;;;;1.80;1.02;;;19.60;54.60;;;;;;4769288;30;20164;-84
2021/11/20 07:43:21;;;;;;;1.10;0.75;;;19.60;54.60;;;;;;4786003;30;20176;-85
2021/11/20 07:45:47;;;;;;;1.75;0.88;;;19.60;54.50;;;;;;4770588;30;20172;-85
2021/11/20 07:48:19;;;;;;;1.35;0.90;;;19.60;54.50;;;;;;4770354;30;20179;-85
2021/11/20 07:50:56;;;;;;;2.15;0.88;;;19.70;54.80;;;;;;4771110;30;20235;-87
2021/11/20 07:53:24;;;;;;;1.05;0.82;;;19.60;54.80;;;;;;4772824;30;20175;-87
2021/11/20 07:55:50;;;;;;;1.02;0.93;;;19.60;54.20;;;;;;4771422;30;20715;-84
2021/11/20 07:58:18;;;;;;;1.75;0.80;;;19.60;54.70;;;;;;4756270;30;20239;-85
2021/11/20 08:00:45;;;;;;;2.17;1.15;;;19.70;54.80;;;;;;4786691;30;20168;-84
2021/11/20 08:03:11;;;;;;;1.92;0.85;;;19.70;54.60;;;;;;4787119;30;20243;-78
2021/11/20 08:05:37;;;;;;;2.10;0.80;;;19.70;54.50;;;;;;4780663;30;20683;-78
2021/11/20 08:08:02;;;;;;;1.20;0.80;;;19.70;54.50;;;;;;4791105;30;20190;-78
2021/11/20 08:10:28;;;;;;;1.38;1.00;;;19.70;54.60;;;;;;4791102;30;20172;-78
2021/11/20 08:12:55;;;;;;;1.73;0.70;;;19.70;54.70;;;;;;4790795;30;20507;-79
2021/11/20 08:15:20;;;;;;;3.13;0.90;;;19.70;54.80;;;;;;4790835;30;20178;-78
2021/11/20 08:17:46;;;;;;;1.98;0.75;;;19.80;54.40;;;;;;4774797;30;20195;-78
2021/11/20 08:20:13;;;;;;;2.22;0.90;;;19.80;54.40;;;;;;4791066;30;20160;-78
2021/11/20 08:22:39;;;;;;;1.65;0.75;;;19.80;54.10;;;;;;4774785;30;20163;-78
2021/11/20 08:25:06;;;;;;;1.40;1.15;;;19.80;54.00;;;;;;4790777;30;20168;-78
2021/11/20 08:27:32;;;;;;;1.35;0.98;;;19.80;54.20;;;;;;4774622;30;20186;-78
2021/11/20 08:29:58;;;;;;;1.63;0.75;;;19.80;54.10;;;;;;4774787;30;20534;-78
2021/11/20 08:32:24;;;;;;;0.93;0.70;;;19.90;53.80;;;;;;4790657;30;20619;-78
2021/11/20 08:34:50;;;;;;;1.52;0.90;;;19.80;53.60;;;;;;4760200;30;20168;-78
2021/11/20 08:37:16;;;;;;;1.10;1.00;;;19.90;53.90;;;;;;4774593;30;20278;-78
2021/11/20 08:39:42;;;;;;;0.68;0.60;;;19.80;54.00;;;;;;4790953;30;20627;-78
2021/11/20 08:42:07;;;;;;;0.80;0.75;;;19.90;54.00;;;;;;4790795;30;20255;-78
2021/11/20 08:44:33;;;;;;;1.20;0.80;;;19.90;53.90;;;;;;4790953;30;20251;-78
2021/11/20 08:46:59;;;;;;;1.10;0.75;;;19.80;53.60;;;;;;4789605;29;20183;-78
2021/11/20 08:49:25;;;;;;;1.42;0.80;;;19.90;53.90;;;;;;4790467;30;20608;-78
2021/11/20 08:51:52;;;;;;;2.28;1.13;;;19.90;54.10;;;;;;4790602;30;20595;-78
2021/11/20 08:54:18;;;;;;;1.67;0.80;;;19.90;54.40;;;;;;4790769;30;20202;-78
2021/11/20 08:56:44;;;;;;;1.33;0.90;;;19.90;54.30;;;;;;4790266;30;20203;-78
2021/11/20 08:59:11;;;;;;;1.50;0.85;;;19.90;54.30;;;;;;4790674;30;20303;-77
2021/11/20 09:01:42;;;;;;;1.60;0.90;;;19.90;54.30;;;;;;4790246;30;20172;-78
2021/11/20 09:04:13;;;;;;;0.98;0.80;;;19.90;54.20;;;;;;4774117;30;20167;-78
2021/11/20 09:06:48;;;;;;;1.05;0.80;;;19.90;53.90;;;;;;4790019;30;20258;-78
2021/11/20 09:09:20;;;;;;;0.65;0.65;;;19.90;54.10;;;;;;4790122;30;20573;-78
2021/11/20 09:11:55;;;;;;;0.60;0.60;;;19.90;53.70;;;;;;4789322;30;20256;-78
2021/11/20 09:14:28;;;;;;;1.35;0.93;;;19.90;53.80;;;;;;4772755;30;20167;-77
2021/11/20 09:16:58;;;;;;;1.83;0.88;;;19.90;53.50;;;;;;4788254;30;20682;-78
2021/11/20 09:19:27;;;;;;;1.42;1.10;;;19.90;53.50;;;;;;4773391;30;20608;-78
2021/11/20 09:21:52;;;;;;;0.68;0.68;;;19.90;53.80;;;;;;4789508;30;20175;-78
2021/11/20 09:24:18;;;;;;;1.20;0.80;;;19.90;53.70;;;;;;4789565;30;20577;-78
2021/11/20 09:26:44;;;;;;;1.00;0.80;;;19.90;53.70;;;;;;4789412;30;20183;-78
2021/11/20 09:29:12;;;;;;;0.95;0.70;;;19.90;53.70;;;;;;4789849;30;20180;-78
2021/11/20 09:31:40;;;;;;;0.95;0.70;;;19.90;53.30;;;;;;4790052;30;20164;-78
2021/11/20 09:34:06;;;;;;;1.08;0.75;;;19.90;53.60;;;;;;4789547;30;20223;-78
2021/11/20 09:36:34;;;;;;;1.13;0.98;;;19.90;53.50;;;;;;4789762;30;20260;-78
2021/11/20 09:39:00;;;;;;;2.75;0.70;;;19.90;53.20;;;;;;4773503;30;20608;-78
2021/11/20 09:41:31;;;;;;;0.85;0.65;;;19.90;53.60;;;;;;4789271;30;20530;-79
2021/11/20 09:43:59;;;;;;;1.08;0.70;;;19.90;53.60;;;;;;4790116;30;20176;-78
2021/11/20 09:46:29;;;;;;;1.20;0.70;;;19.90;53.60;;;;;;4789970;30;20178;-78
2021/11/20 09:49:09;;;;;;;1.00;0.85;;;19.90;54.00;;;;;;4775069;30;20184;-80
2021/11/20 09:51:39;;;;;;;0.75;0.75;;;19.90;53.30;;;;;;4776191;30;20228;-78
2021/11/20 09:54:08;;;;;;;1.58;0.70;;;19.90;53.30;;;;;;4775048;30;20205;-78
2021/11/20 09:56:41;;;;;;;0.65;0.60;;;20.00;53.20;;;;;;4790701;30;20240;-78
2021/11/20 09:59:30;;;;;;;0.82;0.60;;;20.00;53.10;;;;;;4790737;30;20243;-78
2021/11/20 10:02:01;;;;;;;1.80;0.75;;;20.00;53.50;;;;;;4790739;30;20580;-78
2021/11/20 10:04:32;;;;;;;0.70;0.63;;;20.00;53.30;;;;;;4790953;30;20175;-78
2021/11/20 10:07:12;;;;;;;1.75;0.70;;;20.00;53.50;;;;;;4789400;30;20227;-79
2021/11/20 10:09:44;;;;;;;2.10;0.95;;;20.00;53.00;;;;;;4773040;30;20167;-77
2021/11/20 10:12:20;;;;;;;1.27;0.93;;;20.00;53.10;;;;;;4788818;30;20219;-78
2021/11/20 10:14:48;;;;;;;1.52;0.90;;;20.00;52.80;;;;;;4773090;30;20188;-78
2021/11/20 10:17:22;;;;;;;2.22;0.68;;;20.00;54.20;;;;;;4788691;30;20207;-78
2021/11/20 10:19:56;;;;;;;2.10;0.65;;;20.00;53.30;;;;;;4788388;30;20164;-78
2021/11/20 10:23:00;;;;;;;1.88;0.65;;;20.00;53.20;;;;;;4788256;30;20164;-78
2021/11/20 10:26:00;;;;;;;0.90;0.80;;;20.00;53.00;;;;;;4787248;29;20238;-78
2021/11/20 10:28:40;;;;;;;1.52;0.90;;;20.00;53.60;;;;;;4788094;30;20270;-77
2021/11/20 10:31:13;;;;;;;2.15;0.80;;;20.00;53.50;;;;;;4788555;30;20643;-78
2021/11/20 10:34:04;;;;;;;6.28;1.25;;;20.10;53.50;;;;;;4788289;30;20168;-78
2021/11/20 10:36:39;;;;;;;1.30;0.77;;;20.10;53.70;;;;;;4789321;30;20270;-77
2021/11/20 10:39:15;;;;;;;1.65;0.90;;;20.10;53.50;;;;;;4788533;30;20183;-77
2021/11/20 10:41:51;;;;;;;1.33;0.82;;;20.10;53.50;;;;;;4772139;30;20634;-79
2021/11/20 10:44:41;;;;;;;1.67;0.75;;;20.10;53.30;;;;;;4789968;30;20190;-78
2021/11/20 10:47:27;;;;;;;1.42;1.00;;;20.10;53.30;;;;;;4775439;30;20168;-78
2021/11/20 10:50:25;;;;;;;3.15;1.20;;;20.10;53.10;;;;;;4758693;30;20163;-78
2021/11/20 10:53:11;;;;;;;1.55;0.80;;;20.10;53.10;;;;;;4778033;30;20504;-78
2021/11/20 10:56:01;;;;;;;3.45;0.98;;;20.10;53.20;;;;;;4788804;30;20168;-79
2021/11/20 10:58:53;;;;;;;4.15;1.00;;;20.10;53.50;;;;;;4774976;30;20263;-79
2021/11/20 11:01:47;;;;;;;1.63;0.70;;;20.20;53.50;;;;;;4780412;30;20171;-79
2021/11/20 11:04:51;;;;;;;2.85;1.10;;;20.10;53.20;;;;;;4788481;30;20254;-78
2021/11/20 11:07:43;;;;;;;5.07;1.17;;;20.20;53.50;;;;;;4774188;30;20198;-79
2021/11/20 11:10:11;;;;;;;1.50;0.80;;;20.20;53.60;;;;;;4774929;30;20167;-78
2021/11/20 11:12:58;;;;;;;3.53;0.75;;;20.10;54.10;;;;;;4788523;30;20635;-78
2021/11/20 11:16:02;;;;;;;5.00;1.10;;;20.10;53.20;;;;;;4772758;30;20186;-79
2021/11/20 11:18:32;;;;;;;5.57;1.35;;;20.10;53.40;;;;;;4788286;30;20230;-79
2021/11/20 11:21:32;;;;;;;11.02;1.40;;;20.10;53.90;;;;;;4789495;30;20263;-79
2021/11/20 11:24:12;;;;;;;9.15;1.40;;;20.20;53.90;;;;;;4777422;30;20179;-78
2021/11/20 11:26:46;;;;;;;7.53;1.10;;;20.20;53.90;;;;;;4788675;30;20571;-79
2021/11/20 11:29:41;;;;;;;12.60;1.35;;;20.10;53.90;;;;;;4788874;30;20164;-78
2021/11/20 11:32:07;;;;;;;15.15;1.77;;;20.10;53.90;;;;;;4771582;30;20628;-79
2021/11/20 11:34:36;;;;;;;7.05;1.10;;;20.10;53.90;;;;;;4787535;30;20164;-78
2021/11/20 11:37:12;;;;;;;13.40;1.88;;;20.10;53.80;;;;;;4774029;30;20566;-78
2021/11/20 11:40:05;;;;;;;9.57;1.40;;;20.10;54.20;;;;;;4775759;30;20325;-78
2021/11/20 11:42:44;;;;;;;10.18;1.63;;;20.10;54.40;;;;;;4791706;30;20176;-78
2021/11/20 11:45:34;;;;;;;11.23;1.73;;;20.10;54.20;;;;;;4775683;30;20168;-79
2021/11/20 11:48:17;;;;;;;13.32;1.50;;;20.10;54.40;;;;;;4791419;30;20194;-78
2021/11/20 11:51:13;;;;;;;5.82;1.42;;;20.10;54.20;;;;;;4790682;30;20191;-79
2021/11/20 11:54:14;;;;;;;8.10;1.30;;;20.10;54.50;;;;;;4791511;30;20235;-78
2021/11/20 11:56:54;;;;;;;12.50;1.80;;;20.10;54.20;;;;;;4779701;30;20184;-78
2021/11/20 11:59:24;;;;;;;9.35;1.20;;;20.10;54.60;;;;;;4791251;30;20179;-79
2021/11/20 12:02:16;;;;;;;14.57;1.40;;;20.00;54.60;;;;;;4791335;30;20248;-79
2021/11/20 12:04:45;;;;;;;9.48;1.13;;;20.10;54.60;;;;;;4790633;30;20187;-79
2021/11/20 12:07:41;;;;;;;8.18;1.20;;;20.10;54.80;;;;;;4790255;30;20194;-78
2021/11/20 12:10:29;;;;;;;2.97;1.05;;;20.10;54.90;;;;;;4791289;30;20192;-79
2021/11/20 12:13:04;;;;;;;8.50;1.50;;;20.00;54.70;;;;;;4775138;30;20655;-78
2021/11/20 12:15:49;;;;;;;4.70;1.30;;;20.10;54.50;;;;;;4761451;30;20198;-79
2021/11/20 12:18:35;;;;;;;10.85;1.40;;;20.00;54.60;;;;;;4791022;30;20210;-79
2021/11/20 12:21:17;;;;;;;5.95;0.98;;;20.00;54.70;;;;;;4783377;30;20199;-79
2021/11/20 12:24:22;;;;;;;5.50;1.05;;;20.00;54.30;;;;;;4791683;30;20164;-79
2021/11/20 12:27:07;;;;;;;7.53;1.30;;;20.00;54.10;;;;;;4780049;30;20171;-79
2021/11/20 12:30:02;;;;;;;6.18;1.40;;;20.00;54.20;;;;;;4791030;30;20672;-78
2021/11/20 12:33:05;;;;;;;3.13;0.95;;;20.00;54.50;;;;;;4777938;30;20530;-80
2021/11/20 12:36:06;;;;;;;8.27;1.35;;;20.00;54.20;;;;;;4790912;30;20247;-78
2021/11/20 12:38:44;;;;;;;9.98;1.33;;;20.00;54.50;;;;;;4777187;30;20267;-78
2021/11/20 12:41:37;;;;;;;9.38;1.50;;;20.00;54.20;;;;;;4790642;30;20218;-78
2021/11/20 12:44:25;;;;;;;6.25;1.08;;;20.00;55.00;;;;;;4790576;30;20195;-78
2021/11/20 12:47:17;;;;;;;8.10;1.40;;;19.90;54.40;;;;;;4790107;29;20650;-78
2021/11/20 12:49:56;;;;;;;7.85;1.13;;;19.90;54.60;;;;;;4777103;30;20233;-78
2021/11/20 12:52:27;;;;;;;8.65;1.20;;;20.00;54.70;;;;;;4773878;30;20160;-78
2021/11/20 12:54:59;;;;;;;3.45;0.88;;;19.90;54.40;;;;;;4774320;30;20186;-78
2021/11/20 12:57:40;;;;;;;5.07;1.15;;;19.90;54.10;;;;;;4790307;30;20253;-78
2021/11/20 13:00:14;;;;;;;15.38;1.80;;;20.00;54.50;;;;;;4790531;30;20700;-78
2021/11/20 13:02:47;;;;;;;3.83;1.15;;;19.90;54.70;;;;;;4790510;30;20171;-78
2021/11/20 13:05:19;;;;;;;9.68;1.50;;;20.00;54.20;;;;;;4772196;30;20250;-79
2021/11/20 13:07:47;;;;;;;9.05;1.30;;;19.90;54.50;;;;;;4772158;30;20199;-78
2021/11/20 13:10:20;;;;;;;5.60;1.27;;;19.90;54.30;;;;;;4772927;30;20222;-78